Terminal Aerodrome Forecast
Issued by NWS

Home | Current Version | Previous Version | Text Only | Print | Product List | Glossary Off
Versions: 1 2 3 4 5 6 7 8 9 10 11 12 13 14 15 16 17 18 19 20 21 22 23 24 25 26 27 28 29 30 31 32 33 34

472
FTUS45 KGGW 241139
TAFOLF
TAF
KOLF 241139Z 2412/2512 08004KT P6SM BKN025
     FM241700 10005KT P6SM BKN015
     FM242300 13005KT P6SM BKN035
     FM250600 VRB03KT P6SM VCSH OVC020=

USA.gov is the U.S. government's official web portal to all federal, state and local government web resources and services.